createdAt,value
2018-02-11T00:00:01.805Z,780.88
2018-02-11T00:00:05.700Z,780.86
2018-02-11T00:00:09.486Z,780.88
2018-02-11T00:00:13.173Z,780.9
2018-02-11T00:00:17.064Z,780.89
2018-02-11T00:00:20.962Z,780.87
2018-02-11T00:00:24.911Z,780.89
2018-02-11T00:00:28.798Z,780.88
2018-02-11T00:00:32.898Z,780.88
2018-02-11T00:00:36.891Z,780.92
2018-02-11T00:00:40.890Z,780.9
2018-02-11T00:00:44.890Z,780.93
2018-02-11T00:00:48.884Z,780.89
2018-02-11T00:00:52.776Z,780.88
2018-02-11T00:00:56.772Z,780.88
2018-02-11T00:01:00.809Z,780.89
2018-02-11T00:01:04.808Z,780.92
2018-02-11T00:01:08.702Z,780.91
2018-02-11T00:01:12.484Z,780.9
2018-02-11T00:01:16.167Z,780.92
2018-02-11T00:01:19.854Z,780.91
2018-02-11T00:01:23.535Z,780.89
2018-02-11T00:01:27.218Z,780.9
2018-02-11T00:01:31.008Z,780.92
2018-02-11T00:01:35.117Z,780.9
2018-02-11T00:01:39.059Z,780.94
2018-02-11T00:01:43.054Z,780.94
2018-02-11T00:01:46.944Z,780.95
2018-02-11T00:01:50.946Z,780.94
2018-02-11T00:01:54.949Z,780.92
2018-02-11T00:01:58.842Z,780.92
2018-02-11T00:02:02.848Z,780.93
2018-02-11T00:02:06.954Z,780.96
2018-02-11T00:02:10.738Z,780.93
2018-02-11T00:02:14.732Z,780.91
2018-02-11T00:02:18.734Z,780.94
2018-02-11T00:02:22.628Z,780.88
2018-02-11T00:02:26.416Z,780.88
2018-02-11T00:02:30.201Z,780.89
2018-02-11T00:02:34.092Z,780.91
2018-02-11T00:02:37.785Z,780.94
2018-02-11T00:02:41.782Z,780.89
2018-02-11T00:02:45.784Z,780.91
2018-02-11T00:02:49.885Z,780.9
2018-02-11T00:02:53.883Z,780.92
2018-02-11T00:02:57.780Z,780.97
2018-02-11T00:03:01.681Z,780.94
2018-02-11T00:03:06.040Z,780.96
2018-02-11T00:03:10.247Z,780.95
2018-02-11T00:03:14.137Z,780.93
2018-02-11T00:03:17.932Z,780.95
2018-02-11T00:03:22.042Z,780.94
2018-02-11T00:03:25.938Z,780.95
2018-02-11T00:03:29.733Z,780.92
2018-02-11T00:03:33.516Z,780.96
2018-02-11T00:03:37.729Z,780.95
2018-02-11T00:03:41.626Z,780.97
2018-02-11T00:03:45.634Z,780.97
2018-02-11T00:03:49.733Z,780.97
2018-02-11T00:03:53.623Z,780.94
2018-02-11T00:03:57.732Z,780.96
2018-02-11T00:04:01.622Z,780.95
2018-02-11T00:04:05.623Z,780.92
2018-02-11T00:04:09.417Z,780.92
2018-02-11T00:04:13.515Z,780.93
2018-02-11T00:04:17.519Z,780.94
2018-02-11T00:04:21.209Z,780.94
2018-02-11T00:04:24.905Z,780.94
2018-02-11T00:04:28.685Z,780.94
2018-02-11T00:04:32.477Z,780.97
2018-02-11T00:04:36.375Z,780.94
2018-02-11T00:04:40.270Z,780.94
2018-02-11T00:04:44.379Z,780.93
2018-02-11T00:04:48.481Z,780.92
2018-02-11T00:04:52.580Z,780.94
2018-02-11T00:04:56.372Z,780.95
2018-02-11T00:05:00.584Z,780.94
2018-02-11T00:05:04.686Z,780.93
2018-02-11T00:05:08.595Z,780.94
2018-02-11T00:05:12.491Z,780.94
2018-02-11T00:05:16.384Z,780.94
2018-02-11T00:05:20.274Z,780.93
2018-02-11T00:05:24.271Z,780.91
2018-02-11T00:05:28.057Z,780.9
2018-02-11T00:05:31.739Z,780.93
2018-02-11T00:05:35.739Z,780.93
2018-02-11T00:05:39.846Z,780.92
2018-02-11T00:05:43.634Z,780.92
2018-02-11T00:05:47.422Z,780.92
2018-02-11T00:05:51.213Z,780.96
2018-02-11T00:05:55.210Z,780.92
2018-02-11T00:05:58.894Z,780.91
2018-02-11T00:06:03.103Z,780.95
2018-02-11T00:06:07.100Z,780.91
2018-02-11T00:06:11.002Z,780.97
2018-02-11T00:06:14.998Z,780.95
2018-02-11T00:06:18.996Z,780.98
2018-02-11T00:06:22.997Z,780.93
2018-02-11T00:06:26.997Z,780.96
2018-02-11T00:06:30.896Z,780.95
2018-02-11T00:06:34.893Z,781.01
2018-02-11T00:06:38.783Z,780.96
2018-02-11T00:06:42.675Z,780.95
2018-02-11T00:06:46.788Z,780.98
2018-02-11T00:06:50.685Z,780.94
2018-02-11T00:06:54.581Z,780.94
2018-02-11T00:06:58.375Z,780.94
2018-02-11T00:07:02.567Z,780.92
2018-02-11T00:07:06.353Z,780.94
2018-02-11T00:07:10.144Z,780.93
2018-02-11T00:07:14.249Z,780.93
2018-02-11T00:07:18.143Z,780.91
2018-02-11T00:07:22.144Z,780.9
2018-02-11T00:07:26.038Z,780.93
2018-02-11T00:07:30.148Z,780.97
2018-02-11T00:07:33.944Z,780.95
2018-02-11T00:07:37.843Z,780.93
2018-02-11T00:07:41.738Z,780.91
2018-02-11T00:07:45.737Z,780.93
2018-02-11T00:07:49.630Z,780.9
2018-02-11T00:07:53.525Z,780.96
2018-02-11T00:07:57.535Z,780.9
2018-02-11T00:08:01.533Z,780.91
2018-02-11T00:08:05.778Z,780.91
2018-02-11T00:08:09.562Z,780.91
2018-02-11T00:08:13.666Z,780.91
2018-02-11T00:08:17.879Z,780.93
2018-02-11T00:08:22.084Z,780.9
2018-02-11T00:08:26.091Z,780.88
2018-02-11T00:08:30.092Z,780.9
2018-02-11T00:08:34.197Z,780.87
2018-02-11T00:08:38.089Z,780.86
2018-02-11T00:08:42.299Z,780.85
2018-02-11T00:08:46.512Z,780.95
2018-02-11T00:08:50.832Z,780.94
2018-02-11T00:08:54.723Z,780.92
2018-02-11T00:08:58.616Z,780.88
2018-02-11T00:09:02.301Z,780.89
2018-02-11T00:09:06.401Z,780.93
2018-02-11T00:09:10.401Z,780.94
2018-02-11T00:09:14.186Z,780.94
2018-02-11T00:09:17.981Z,780.91
2018-02-11T00:09:22.135Z,780.94
2018-02-11T00:09:26.248Z,780.91
2018-02-11T00:09:30.144Z,780.92
2018-02-11T00:09:34.040Z,780.92
2018-02-11T00:09:37.829Z,780.92
2018-02-11T00:09:41.519Z,780.94
2018-02-11T00:09:45.515Z,780.92
2018-02-11T00:09:49.514Z,780.93
2018-02-11T00:09:53.406Z,780.96
2018-02-11T00:09:57.300Z,780.92
2018-02-11T00:10:01.089Z,780.95
2018-02-11T00:10:05.551Z,780.91
2018-02-11T00:10:09.666Z,780.91
2018-02-11T00:10:13.557Z,780.89
2018-02-11T00:10:17.458Z,780.88
2018-02-11T00:10:21.460Z,780.89
2018-02-11T00:10:25.251Z,780.91
2018-02-11T00:10:29.364Z,780.91
2018-02-11T00:10:33.367Z,780.86
2018-02-11T00:10:37.267Z,780.88
2018-02-11T00:10:41.381Z,780.9
2018-02-11T00:10:45.275Z,780.87
2018-02-11T00:10:49.480Z,780.89
2018-02-11T00:10:53.372Z,780.86
2018-02-11T00:10:57.197Z,780.87
2018-02-11T00:11:01.506Z,780.88
2018-02-11T00:11:05.999Z,780.89
2018-02-11T00:11:09.896Z,780.9
2018-02-11T00:11:13.897Z,780.84
2018-02-11T00:11:17.692Z,780.82
2018-02-11T00:11:21.377Z,780.82
2018-02-11T00:11:25.380Z,780.82
2018-02-11T00:11:29.280Z,780.83
2018-02-11T00:11:33.387Z,780.83
2018-02-11T00:11:37.177Z,780.84
2018-02-11T00:11:41.373Z,780.83
2018-02-11T00:11:45.260Z,780.81
2018-02-11T00:11:49.156Z,780.81
2018-02-11T00:11:53.049Z,780.84
2018-02-11T00:11:57.044Z,780.86
2018-02-11T00:12:01.145Z,780.84
2018-02-11T00:12:05.094Z,780.87
2018-02-11T00:12:08.981Z,780.81
2018-02-11T00:12:13.194Z,780.83
2018-02-11T00:12:17.194Z,780.82
2018-02-11T00:12:21.102Z,780.81
2018-02-11T00:12:25.003Z,780.8
2018-02-11T00:12:28.989Z,780.79
2018-02-11T00:12:32.882Z,780.8
2018-02-11T00:12:36.666Z,780.79
2018-02-11T00:12:40.453Z,780.84
2018-02-11T00:12:44.136Z,780.83
2018-02-11T00:12:48.133Z,780.85
2018-02-11T00:12:52.143Z,780.87
2018-02-11T00:12:56.039Z,780.81
2018-02-11T00:12:59.822Z,780.86
2018-02-11T00:13:03.928Z,780.82
2018-02-11T00:13:07.855Z,780.84
2018-02-11T00:13:11.541Z,780.85
2018-02-11T00:13:15.644Z,780.82
2018-02-11T00:13:19.535Z,780.83
2018-02-11T00:13:23.439Z,780.8
2018-02-11T00:13:27.341Z,780.82
2018-02-11T00:13:31.340Z,780.83
2018-02-11T00:13:35.441Z,780.82
2018-02-11T00:13:39.435Z,780.81
2018-02-11T00:13:43.329Z,780.81
2018-02-11T00:13:47.541Z,780.74
2018-02-11T00:13:51.645Z,780.77
2018-02-11T00:13:55.713Z,780.77
2018-02-11T00:13:59.711Z,780.79
2018-02-11T00:14:03.395Z,780.73
2018-02-11T00:14:07.498Z,780.81
2018-02-11T00:14:11.503Z,780.8
2018-02-11T00:14:15.512Z,780.77
2018-02-11T00:14:19.298Z,780.79
2018-02-11T00:14:23.517Z,780.8
2018-02-11T00:14:27.516Z,780.77
2018-02-11T00:14:31.413Z,780.78
2018-02-11T00:14:35.311Z,780.77
2018-02-11T00:14:39.199Z,780.79
2018-02-11T00:14:42.981Z,780.78
2018-02-11T00:14:46.878Z,780.78
2018-02-11T00:14:50.879Z,780.77
2018-02-11T00:14:54.772Z,780.77
2018-02-11T00:14:58.554Z,780.83
2018-02-11T00:15:02.865Z,780.77
2018-02-11T00:15:07.132Z,780.75
2018-02-11T00:15:11.130Z,780.79
2018-02-11T00:15:15.126Z,780.77
2018-02-11T00:15:18.915Z,780.8
2018-02-11T00:15:22.910Z,780.77
2018-02-11T00:15:26.803Z,780.74
2018-02-11T00:15:30.597Z,780.78
2018-02-11T00:15:34.491Z,780.78
2018-02-11T00:15:38.392Z,780.82
2018-02-11T00:15:42.181Z,780.79
2018-02-11T00:15:45.969Z,780.77
2018-02-11T00:15:49.864Z,780.82
2018-02-11T00:15:53.554Z,780.76
2018-02-11T00:15:57.655Z,780.8
2018-02-11T00:16:01.342Z,780.79
2018-02-11T00:16:05.388Z,780.78
2018-02-11T00:16:09.176Z,780.78
2018-02-11T00:16:13.194Z,780.81
2018-02-11T00:16:17.297Z,780.77
2018-02-11T00:16:21.298Z,780.78
2018-02-11T00:16:25.088Z,780.84
2018-02-11T00:16:28.879Z,780.79
2018-02-11T00:16:32.774Z,780.83
2018-02-11T00:16:36.766Z,780.8
2018-02-11T00:16:40.766Z,780.83
2018-02-11T00:16:44.449Z,780.79
2018-02-11T00:16:48.450Z,780.79
2018-02-11T00:16:52.347Z,780.83
2018-02-11T00:16:56.349Z,780.82
2018-02-11T00:17:00.238Z,780.76
2018-02-11T00:17:04.337Z,780.72
2018-02-11T00:17:08.284Z,780.74
2018-02-11T00:17:12.390Z,780.75
2018-02-11T00:17:16.490Z,780.81
2018-02-11T00:17:20.608Z,780.82
2018-02-11T00:17:24.389Z,780.77
2018-02-11T00:17:28.385Z,780.8
2018-02-11T00:17:32.297Z,780.76
2018-02-11T00:17:36.198Z,780.8
2018-02-11T00:17:40.197Z,780.78
2018-02-11T00:17:44.195Z,780.78
2018-02-11T00:17:48.191Z,780.79
2018-02-11T00:17:52.301Z,780.81
2018-02-11T00:17:56.298Z,780.79
2018-02-11T00:18:00.616Z,780.79
2018-02-11T00:18:04.817Z,780.82
2018-02-11T00:18:08.606Z,780.79
2018-02-11T00:18:12.613Z,780.77
2018-02-11T00:18:16.615Z,780.79
2018-02-11T00:18:20.608Z,780.77
2018-02-11T00:18:24.614Z,780.78
2018-02-11T00:18:28.410Z,780.77
2018-02-11T00:18:32.295Z,780.78
2018-02-11T00:18:36.185Z,780.8
2018-02-11T00:18:40.497Z,780.78
2018-02-11T00:18:44.706Z,780.79
2018-02-11T00:18:48.701Z,780.79
2018-02-11T00:18:52.591Z,780.8
2018-02-11T00:18:56.585Z,780.77
2018-02-11T00:19:00.475Z,780.75
2018-02-11T00:19:04.475Z,780.8
2018-02-11T00:19:08.474Z,780.74
2018-02-11T00:19:12.365Z,780.8
2018-02-11T00:19:16.470Z,780.77
2018-02-11T00:19:20.366Z,780.78
2018-02-11T00:19:24.363Z,780.79
2018-02-11T00:19:28.054Z,780.79
2018-02-11T00:19:31.846Z,780.75
2018-02-11T00:19:35.762Z,780.81
2018-02-11T00:19:39.548Z,780.8
2018-02-11T00:19:43.338Z,780.77
2018-02-11T00:19:47.547Z,780.77
2018-02-11T00:19:51.544Z,780.8
2018-02-11T00:19:55.647Z,780.77
2018-02-11T00:19:59.544Z,780.77
2018-02-11T00:20:03.695Z,780.77
2018-02-11T00:20:07.691Z,780.8
2018-02-11T00:20:11.587Z,780.78
2018-02-11T00:20:15.479Z,780.82
2018-02-11T00:20:19.591Z,780.79
2018-02-11T00:20:23.698Z,780.78
2018-02-11T00:20:27.591Z,780.8
2018-02-11T00:20:31.481Z,780.8
2018-02-11T00:20:35.375Z,780.78
2018-02-11T00:20:39.372Z,780.82
2018-02-11T00:20:43.057Z,780.79
2018-02-11T00:20:46.948Z,780.81
2018-02-11T00:20:50.739Z,780.78
2018-02-11T00:20:54.741Z,780.79
2018-02-11T00:20:58.633Z,780.82
2018-02-11T00:21:02.632Z,780.82
2018-02-11T00:21:06.624Z,780.84
2018-02-11T00:21:10.625Z,780.82
2018-02-11T00:21:14.520Z,780.82
2018-02-11T00:21:18.305Z,780.8
2018-02-11T00:21:22.402Z,780.78
2018-02-11T00:21:26.300Z,780.76
2018-02-11T00:21:30.297Z,780.78
2018-02-11T00:21:34.192Z,780.8
2018-02-11T00:21:38.399Z,780.79
2018-02-11T00:21:42.190Z,780.8
2018-02-11T00:21:46.180Z,780.8
2018-02-11T00:21:49.975Z,780.81
2018-02-11T00:21:53.762Z,780.77
2018-02-11T00:21:57.654Z,780.8
2018-02-11T00:22:01.442Z,780.77
2018-02-11T00:22:05.531Z,780.77
2018-02-11T00:22:09.421Z,780.78
2018-02-11T00:22:13.417Z,780.8
2018-02-11T00:22:17.415Z,780.78
2018-02-11T00:22:21.417Z,780.76
2018-02-11T00:22:25.522Z,780.76
2018-02-11T00:22:29.522Z,780.74
2018-02-11T00:22:33.620Z,780.72
2018-02-11T00:22:37.525Z,780.68
2018-02-11T00:22:41.429Z,780.69
2018-02-11T00:22:45.321Z,780.68
2018-02-11T00:22:49.428Z,780.7
2018-02-11T00:22:53.122Z,780.64
2018-02-11T00:22:56.906Z,780.7
2018-02-11T00:23:00.902Z,780.68
2018-02-11T00:23:04.899Z,780.68
2018-02-11T00:23:08.896Z,780.67
2018-02-11T00:23:13.000Z,780.65
2018-02-11T00:23:16.997Z,780.68
2018-02-11T00:23:21.105Z,780.68
2018-02-11T00:23:24.996Z,780.67
2018-02-11T00:23:29.098Z,780.64
2018-02-11T00:23:33.094Z,780.65
2018-02-11T00:23:37.095Z,780.66
2018-02-11T00:23:41.198Z,780.68
2018-02-11T00:23:45.082Z,780.67
2018-02-11T00:23:49.191Z,780.67
2018-02-11T00:23:53.297Z,780.66
2018-02-11T00:23:57.295Z,780.66
2018-02-11T00:24:01.289Z,780.67
2018-02-11T00:24:05.503Z,780.65
2018-02-11T00:24:09.501Z,780.63
2018-02-11T00:24:13.508Z,780.63
2018-02-11T00:24:17.507Z,780.66
2018-02-11T00:24:21.399Z,780.64
2018-02-11T00:24:25.293Z,780.63
2018-02-11T00:24:29.086Z,780.64
2018-02-11T00:24:32.985Z,780.6
2018-02-11T00:24:36.986Z,780.63
2018-02-11T00:24:40.770Z,780.65
2018-02-11T00:24:44.561Z,780.64
2018-02-11T00:24:48.463Z,780.64
2018-02-11T00:24:52.353Z,780.64
2018-02-11T00:24:56.137Z,780.65
2018-02-11T00:25:00.127Z,780.62
2018-02-11T00:25:04.177Z,780.59
2018-02-11T00:25:08.445Z,780.57
2018-02-11T00:25:12.447Z,780.57
2018-02-11T00:25:16.338Z,780.57
2018-02-11T00:25:20.130Z,780.56
2018-02-11T00:25:23.918Z,780.64
2018-02-11T00:25:27.913Z,780.57
2018-02-11T00:25:31.914Z,780.62
2018-02-11T00:25:35.806Z,780.63
2018-02-11T00:25:39.806Z,780.6
2018-02-11T00:25:43.647Z,780.65
2018-02-11T00:25:47.540Z,780.64
2018-02-11T00:25:51.436Z,780.65
2018-02-11T00:25:55.120Z,780.66
2018-02-11T00:25:59.121Z,780.66
2018-02-11T00:26:03.017Z,780.67
2018-02-11T00:26:06.700Z,780.67
2018-02-11T00:26:10.698Z,780.66
2018-02-11T00:26:14.688Z,780.67
2018-02-11T00:26:18.586Z,780.66
2018-02-11T00:26:22.378Z,780.65
2018-02-11T00:26:26.166Z,780.66
2018-02-11T00:26:30.060Z,780.67
2018-02-11T00:26:33.993Z,780.68
2018-02-11T00:26:37.777Z,780.66
2018-02-11T00:26:41.665Z,780.68
2018-02-11T00:26:45.557Z,780.7
2018-02-11T00:26:49.660Z,780.68
2018-02-11T00:26:53.657Z,780.67
2018-02-11T00:26:57.778Z,780.71
2018-02-11T00:27:01.672Z,780.67
2018-02-11T00:27:05.482Z,780.66
2018-02-11T00:27:09.241Z,780.72
2018-02-11T00:27:13.447Z,780.69
2018-02-11T00:27:17.231Z,780.65
2018-02-11T00:27:21.178Z,780.7
2018-02-11T00:27:25.192Z,780.7
2018-02-11T00:27:28.981Z,780.7
2018-02-11T00:27:32.874Z,780.7
2018-02-11T00:27:36.556Z,780.68
2018-02-11T00:27:40.665Z,780.71
2018-02-11T00:27:44.455Z,780.69
2018-02-11T00:27:48.246Z,780.73
2018-02-11T00:27:52.244Z,780.7
2018-02-11T00:27:56.037Z,780.67
2018-02-11T00:28:00.141Z,780.71
2018-02-11T00:28:04.290Z,780.72
2018-02-11T00:28:08.282Z,780.73
2018-02-11T00:28:12.280Z,780.72
2018-02-11T00:28:16.178Z,780.71
2018-02-11T00:28:20.395Z,780.7
2018-02-11T00:28:24.285Z,780.65
2018-02-11T00:28:28.177Z,780.68
2018-02-11T00:28:32.174Z,780.66
2018-02-11T00:28:36.067Z,780.67
2018-02-11T00:28:39.963Z,780.7
2018-02-11T00:28:43.848Z,780.67
2018-02-11T00:28:47.949Z,780.72
2018-02-11T00:28:51.737Z,780.75
2018-02-11T00:28:55.526Z,780.73
2018-02-11T00:28:59.215Z,780.72
2018-02-11T00:29:03.220Z,780.72
2018-02-11T00:29:07.012Z,780.72
2018-02-11T00:29:11.005Z,780.73
2018-02-11T00:29:14.897Z,780.75
2018-02-11T00:29:18.788Z,780.71
2018-02-11T00:29:22.890Z,780.71
2018-02-11T00:29:26.805Z,780.73
2018-02-11T00:29:30.592Z,780.72
2018-02-11T00:29:34.481Z,780.68
2018-02-11T00:29:38.272Z,780.74
2018-02-11T00:29:42.169Z,780.71
2018-02-11T00:29:46.284Z,780.71
2018-02-11T00:29:50.073Z,780.71
2018-02-11T00:29:54.070Z,780.72
2018-02-11T00:29:58.073Z,780.71
2018-02-11T00:30:01.992Z,780.71
2018-02-11T00:30:05.992Z,780.7
2018-02-11T00:30:09.886Z,780.69
2018-02-11T00:30:13.888Z,780.68
2018-02-11T00:30:17.888Z,780.73
2018-02-11T00:30:21.680Z,780.71
2018-02-11T00:30:25.471Z,780.69
2018-02-11T00:30:29.155Z,780.69
2018-02-11T00:30:33.207Z,780.67
2018-02-11T00:30:37.105Z,780.59
2018-02-11T00:30:41.106Z,780.6
2018-02-11T00:30:45.116Z,780.56
2018-02-11T00:30:48.894Z,780.62
2018-02-11T00:30:52.678Z,780.56
2018-02-11T00:30:56.569Z,780.59
2018-02-11T00:31:00.666Z,780.54
2018-02-11T00:31:04.772Z,780.57
2018-02-11T00:31:08.456Z,780.57
2018-02-11T00:31:12.556Z,780.6
2018-02-11T00:31:16.567Z,780.62
2018-02-11T00:31:20.464Z,780.61
2018-02-11T00:31:24.362Z,780.6
2018-02-11T00:31:28.149Z,780.62
2018-02-11T00:31:32.144Z,780.6
2018-02-11T00:31:35.933Z,780.56
2018-02-11T00:31:39.630Z,780.6
2018-02-11T00:31:43.634Z,780.61
2018-02-11T00:31:47.857Z,780.54
2018-02-11T00:31:51.971Z,780.61
2018-02-11T00:31:55.868Z,780.63
2018-02-11T00:31:59.873Z,780.56
2018-02-11T00:32:04.078Z,780.57
2018-02-11T00:32:08.080Z,780.6
2018-02-11T00:32:12.087Z,780.58
2018-02-11T00:32:15.981Z,780.6
2018-02-11T00:32:19.764Z,780.57
2018-02-11T00:32:23.759Z,780.61
2018-02-11T00:32:27.659Z,780.54
2018-02-11T00:32:31.653Z,780.56
2018-02-11T00:32:35.447Z,780.59
2018-02-11T00:32:39.445Z,780.6
2018-02-11T00:32:43.339Z,780.62
2018-02-11T00:32:47.342Z,780.6
2018-02-11T00:32:51.341Z,780.62
2018-02-11T00:32:55.351Z,780.63
2018-02-11T00:32:59.135Z,780.65
2018-02-11T00:33:02.922Z,780.63
2018-02-11T00:33:06.812Z,780.63
2018-02-11T00:33:10.705Z,780.6
2018-02-11T00:33:14.389Z,780.55
2018-02-11T00:33:18.286Z,780.57
2018-02-11T00:33:22.282Z,780.63
2018-02-11T00:33:26.065Z,780.62
2018-02-11T00:33:30.056Z,780.59
2018-02-11T00:33:34.055Z,780.63
2018-02-11T00:33:38.170Z,780.6
2018-02-11T00:33:41.956Z,780.58
2018-02-11T00:33:45.958Z,780.6
2018-02-11T00:33:50.062Z,780.58
2018-02-11T00:33:54.159Z,780.65
2018-02-11T00:33:57.940Z,780.59
2018-02-11T00:34:01.828Z,780.61
2018-02-11T00:34:05.932Z,780.63
2018-02-11T00:34:09.618Z,780.62
2018-02-11T00:34:13.516Z,780.63
2018-02-11T00:34:17.417Z,780.6
2018-02-11T00:34:21.207Z,780.6
2018-02-11T00:34:25.004Z,780.53
2018-02-11T00:34:28.788Z,780.56
2018-02-11T00:34:32.786Z,780.6
2018-02-11T00:34:36.672Z,780.57
2018-02-11T00:34:40.888Z,780.58
2018-02-11T00:34:44.890Z,780.61
2018-02-11T00:34:48.992Z,780.58
2018-02-11T00:34:52.772Z,780.57
2018-02-11T00:34:56.455Z,780.56
2018-02-11T00:35:00.352Z,780.6
2018-02-11T00:35:04.194Z,780.52
2018-02-11T00:35:08.084Z,780.58
2018-02-11T00:35:12.080Z,780.58
2018-02-11T00:35:15.972Z,780.53
2018-02-11T00:35:19.769Z,780.47
2018-02-11T00:35:23.547Z,780.57
2018-02-11T00:35:27.655Z,780.54
2018-02-11T00:35:31.551Z,780.57
2018-02-11T00:35:35.349Z,780.59
2018-02-11T00:35:39.349Z,780.56
2018-02-11T00:35:43.147Z,780.54
2018-02-11T00:35:46.939Z,780.56
2018-02-11T00:35:50.937Z,780.59
2018-02-11T00:35:54.825Z,780.58
2018-02-11T00:35:58.617Z,780.56
2018-02-11T00:36:03.077Z,780.51
2018-02-11T00:36:07.083Z,780.48
2018-02-11T00:36:10.871Z,780.5
2018-02-11T00:36:14.768Z,780.49
2018-02-11T00:36:18.765Z,780.5
2018-02-11T00:36:22.658Z,780.5
2018-02-11T00:36:26.446Z,780.5
2018-02-11T00:36:30.338Z,780.53
2018-02-11T00:36:34.129Z,780.54
2018-02-11T00:36:37.914Z,780.53
2018-02-11T00:36:41.705Z,780.53
2018-02-11T00:36:45.599Z,780.54
2018-02-11T00:36:49.816Z,780.53
2018-02-11T00:36:53.818Z,780.56
2018-02-11T00:36:57.608Z,780.51
2018-02-11T00:37:01.612Z,780.52
2018-02-11T00:37:05.504Z,780.53
2018-02-11T00:37:09.293Z,780.5
2018-02-11T00:37:12.978Z,780.47
2018-02-11T00:37:16.982Z,780.52
2018-02-11T00:37:21.084Z,780.52
2018-02-11T00:37:25.192Z,780.49
2018-02-11T00:37:28.983Z,780.52
2018-02-11T00:37:33.189Z,780.51
2018-02-11T00:37:36.971Z,780.45
2018-02-11T00:37:40.975Z,780.5
2018-02-11T00:37:44.761Z,780.5
2018-02-11T00:37:48.968Z,780.47
2018-02-11T00:37:52.861Z,780.47
2018-02-11T00:37:56.753Z,780.48
2018-02-11T00:38:00.646Z,780.46
2018-02-11T00:38:04.545Z,780.49
2018-02-11T00:38:08.438Z,780.49
2018-02-11T00:38:12.435Z,780.45
2018-02-11T00:38:16.538Z,780.48
2018-02-11T00:38:20.434Z,780.49
2018-02-11T00:38:24.441Z,780.47
2018-02-11T00:38:28.228Z,780.48
2018-02-11T00:38:32.017Z,780.46
2018-02-11T00:38:36.011Z,780.49
2018-02-11T00:38:39.797Z,780.5
2018-02-11T00:38:43.790Z,780.48
2018-02-11T00:38:47.790Z,780.46
2018-02-11T00:38:51.788Z,780.48
2018-02-11T00:38:55.681Z,780.45
2018-02-11T00:38:59.366Z,780.46
2018-02-11T00:39:03.465Z,780.46
2018-02-11T00:39:07.460Z,780.46
2018-02-11T00:39:11.363Z,780.46
2018-02-11T00:39:15.261Z,780.47
2018-02-11T00:39:19.154Z,780.47
2018-02-11T00:39:23.054Z,780.49
2018-02-11T00:39:26.948Z,780.46
2018-02-11T00:39:30.951Z,780.41
2018-02-11T00:39:34.733Z,780.44
2018-02-11T00:39:38.728Z,780.44
2018-02-11T00:39:42.408Z,780.43
2018-02-11T00:39:46.198Z,780.44
2018-02-11T00:39:50.204Z,780.45
2018-02-11T00:39:54.202Z,780.44
2018-02-11T00:39:58.097Z,780.45
2018-02-11T00:40:02.238Z,780.43
2018-02-11T00:40:06.345Z,780.46
2018-02-11T00:40:10.239Z,780.45
2018-02-11T00:40:14.127Z,780.47
2018-02-11T00:40:18.018Z,780.46
2018-02-11T00:40:21.910Z,780.46
2018-02-11T00:40:25.692Z,780.46
2018-02-11T00:40:29.691Z,780.42
2018-02-11T00:40:33.375Z,780.45
2018-02-11T00:40:37.271Z,780.46
2018-02-11T00:40:41.163Z,780.47
2018-02-11T00:40:44.952Z,780.43
2018-02-11T00:40:48.958Z,780.43
2018-02-11T00:40:53.173Z,780.41
2018-02-11T00:40:57.066Z,780.44
2018-02-11T00:41:00.962Z,780.4
2018-02-11T00:41:05.200Z,780.43
2018-02-11T00:41:09.161Z,780.41
2018-02-11T00:41:13.359Z,780.43
2018-02-11T00:41:17.250Z,780.47
2018-02-11T00:41:21.359Z,780.43
2018-02-11T00:41:25.252Z,780.45
2018-02-11T00:41:29.255Z,780.47
2018-02-11T00:41:33.041Z,780.43
2018-02-11T00:41:36.829Z,780.45
2018-02-11T00:41:40.723Z,780.43
2018-02-11T00:41:44.509Z,780.47
2018-02-11T00:41:48.611Z,780.45
2018-02-11T00:41:52.709Z,780.4
2018-02-11T00:41:56.707Z,780.42
2018-02-11T00:42:00.603Z,780.46
2018-02-11T00:42:04.753Z,780.4
2018-02-11T00:42:08.649Z,780.4
2018-02-11T00:42:12.436Z,780.38
2018-02-11T00:42:16.249Z,780.4
2018-02-11T00:42:20.119Z,780.41
2018-02-11T00:42:24.015Z,780.42
2018-02-11T00:42:27.697Z,780.43
2018-02-11T00:42:31.383Z,780.4
2018-02-11T00:42:35.281Z,780.41
2018-02-11T00:42:39.074Z,780.4
2018-02-11T00:42:42.862Z,780.38
2018-02-11T00:42:46.960Z,780.42
2018-02-11T00:42:51.070Z,780.41
2018-02-11T00:42:55.069Z,780.39
2018-02-11T00:42:59.171Z,780.39
2018-02-11T00:43:03.313Z,780.37
2018-02-11T00:43:07.467Z,780.34
2018-02-11T00:43:11.362Z,780.34
2018-02-11T00:43:15.466Z,780.37
2018-02-11T00:43:19.457Z,780.38
2018-02-11T00:43:23.350Z,780.36
2018-02-11T00:43:27.451Z,780.38
2018-02-11T00:43:31.451Z,780.37
2018-02-11T00:43:35.660Z,780.36
2018-02-11T00:43:39.658Z,780.34
2018-02-11T00:43:43.759Z,780.34
2018-02-11T00:43:47.754Z,780.3
2018-02-11T00:43:51.959Z,780.29
2018-02-11T00:43:55.962Z,780.3
2018-02-11T00:43:59.854Z,780.28
2018-02-11T00:44:04.006Z,780.28
2018-02-11T00:44:08.003Z,780.29
2018-02-11T00:44:11.893Z,780.3
2018-02-11T00:44:15.890Z,780.29
2018-02-11T00:44:19.680Z,780.26
2018-02-11T00:44:23.470Z,780.28
2018-02-11T00:44:27.370Z,780.3
2018-02-11T00:44:31.171Z,780.26
2018-02-11T00:44:35.064Z,780.27
2018-02-11T00:44:39.058Z,780.23
2018-02-11T00:44:42.956Z,780.25
2018-02-11T00:44:46.855Z,780.25
2018-02-11T00:44:50.531Z,780.26
2018-02-11T00:44:54.527Z,780.23
2018-02-11T00:44:58.526Z,780.22
2018-02-11T00:45:02.524Z,780.24
2018-02-11T00:45:06.840Z,780.24
2018-02-11T00:45:10.732Z,780.19
2018-02-11T00:45:14.728Z,780.2
2018-02-11T00:45:18.632Z,780.19
2018-02-11T00:45:22.411Z,780.18
2018-02-11T00:45:26.409Z,780.18
2018-02-11T00:45:30.309Z,780.19
2018-02-11T00:45:34.207Z,780.16
2018-02-11T00:45:38.203Z,780.16
2018-02-11T00:45:42.209Z,780.19
2018-02-11T00:45:46.102Z,780.18
2018-02-11T00:45:50.008Z,780.13
2018-02-11T00:45:54.121Z,780.17
2018-02-11T00:45:58.115Z,780.16
2018-02-11T00:46:02.110Z,780.16
2018-02-11T00:46:06.111Z,780.15
2018-02-11T00:46:09.899Z,780.15
2018-02-11T00:46:13.584Z,780.13
2018-02-11T00:46:17.373Z,780.12
2018-02-11T00:46:21.475Z,780.12
2018-02-11T00:46:25.478Z,780.14
2018-02-11T00:46:29.473Z,780.11
2018-02-11T00:46:33.272Z,780.12
2018-02-11T00:46:37.164Z,780.09
2018-02-11T00:46:41.058Z,780.09
2018-02-11T00:46:45.051Z,780.09
2018-02-11T00:46:48.944Z,780.09
2018-02-11T00:46:53.044Z,780.05
2018-02-11T00:46:56.833Z,780.1
2018-02-11T00:47:00.624Z,780.06
2018-02-11T00:47:04.524Z,780.06
2018-02-11T00:47:08.413Z,780.04
2018-02-11T00:47:12.409Z,780.05
2018-02-11T00:47:16.516Z,780.03
2018-02-11T00:47:20.511Z,780.06
2018-02-11T00:47:24.406Z,780.03
2018-02-11T00:47:28.403Z,780.05
2018-02-11T00:47:32.406Z,780.04
2018-02-11T00:47:36.297Z,780.05
2018-02-11T00:47:39.977Z,780.05
2018-02-11T00:47:43.760Z,780.04
2018-02-11T00:47:47.705Z,780.04
2018-02-11T00:47:51.806Z,780.02
2018-02-11T00:47:55.802Z,780.04
2018-02-11T00:47:59.482Z,780
2018-02-11T00:48:03.485Z,780.03
2018-02-11T00:48:07.372Z,780
2018-02-11T00:48:11.534Z,780.02
2018-02-11T00:48:15.318Z,779.97
2018-02-11T00:48:19.314Z,780
2018-02-11T00:48:23.000Z,779.99
2018-02-11T00:48:26.895Z,780.01
2018-02-11T00:48:30.795Z,779.97
2018-02-11T00:48:34.791Z,779.98
2018-02-11T00:48:38.579Z,779.95
2018-02-11T00:48:42.261Z,779.97
2018-02-11T00:48:46.052Z,779.96
2018-02-11T00:48:49.842Z,779.94
2018-02-11T00:48:53.735Z,779.95
2018-02-11T00:48:57.629Z,779.93
2018-02-11T00:49:01.418Z,779.92
2018-02-11T00:49:05.780Z,779.94
2018-02-11T00:49:09.570Z,779.97
2018-02-11T00:49:13.456Z,779.94
2018-02-11T00:49:17.241Z,779.95
2018-02-11T00:49:20.928Z,779.91